Time;durP1;ratioP1;P1;durP2;ratioP2;P2;SDS_P1;SDS_P2;PMS_P1;PMS_P2;Temp;Humidity;BMP_temperature;BMP_pressure;BME280_temperature;BME280_humidity;BME280_pressure;Samples;Min_cycle;Max_cycle;Signal;HPM_P1;HPM_P2
2022/05/25 00:00:48;;;;;;;7.82;5.55;;;;;;;10.73;97.52;101137.06;5116902;28;20430;-64
2022/05/25 00:03:14;;;;;;;8.88;5.28;;;;;;;10.70;98.09;101142.31;5116878;28;20024;-65
2022/05/25 00:05:40;;;;;;;6.50;5.47;;;;;;;10.75;97.83;101143.13;5117190;28;20028;-65
2022/05/25 00:08:09;;;;;;;7.13;5.22;;;;;;;10.69;97.49;101143.22;5116827;28;20092;-65
2022/05/25 00:10:35;;;;;;;6.63;5.38;;;;;;;10.62;97.00;101146.75;5117049;28;20417;-65
2022/05/25 00:13:01;;;;;;;10.02;5.80;;;;;;;10.56;97.25;101141.59;5116834;28;20059;-65
2022/05/25 00:15:26;;;;;;;6.30;5.55;;;;;;;10.60;97.71;101153.75;5116619;28;20027;-66
2022/05/25 00:17:53;;;;;;;8.70;6.38;;;;;;;10.59;97.71;101148.50;5116776;28;20477;-66
2022/05/25 00:20:19;;;;;;;8.55;6.72;;;;;;;10.59;98.54;101158.97;5116602;28;20501;-65
2022/05/25 00:22:46;;;;;;;7.95;6.78;;;;;;;10.40;98.75;101132.97;5116568;28;20127;-65
2022/05/25 00:25:14;;;;;;;12.20;6.72;;;;;;;10.52;99.25;101146.84;5116419;28;20338;-64
2022/05/25 00:27:40;;;;;;;8.25;6.57;;;;;;;10.55;99.28;101149.44;5116627;28;20350;-65
2022/05/25 00:30:06;;;;;;;11.68;6.88;;;;;;;10.48;99.38;101145.13;5116301;28;20072;-66
2022/05/25 00:32:32;;;;;;;10.25;7.07;;;;;;;10.48;99.53;101160.84;5116524;28;20036;-65
2022/05/25 00:34:57;;;;;;;11.60;7.50;;;;;;;10.39;99.49;101160.00;5116138;28;20425;-64
2022/05/25 00:37:23;;;;;;;9.23;7.78;;;;;;;10.39;100.00;101151.31;5116261;28;20039;-66
2022/05/25 00:39:48;;;;;;;10.48;7.38;;;;;;;10.42;99.96;101157.38;5115946;28;20122;-65
2022/05/25 00:42:13;;;;;;;11.05;8.10;;;;;;;10.47;100.00;101152.13;5116329;28;20051;-65
2022/05/25 00:44:38;;;;;;;13.38;8.52;;;;;;;10.44;100.00;101150.38;5116170;28;20405;-65
2022/05/25 00:47:06;;;;;;;11.20;7.88;;;;;;;10.42;100.00;101154.75;5116468;28;20027;-65
2022/05/25 00:49:33;;;;;;;13.18;8.93;;;;;;;10.43;100.00;101158.25;5116173;28;20023;-65
2022/05/25 00:52:09;;;;;;;13.10;8.65;;;;;;;10.42;100.00;101153.88;5113006;28;20122;-65
2022/05/25 00:54:51;;;;;;;8.82;7.75;;;;;;;10.38;100.00;101155.69;5116005;28;20446;-65
2022/05/25 00:57:20;;;;;;;9.35;7.65;;;;;;;10.37;99.58;101177.50;5116585;28;20051;-65
2022/05/25 00:59:57;;;;;;;9.65;8.30;;;;;;;10.36;99.97;101174.88;5115888;28;20028;-65
2022/05/25 01:02:27;;;;;;;12.68;8.18;;;;;;;10.37;99.72;101168.78;5116036;28;20032;-64
2022/05/25 01:04:52;;;;;;;11.88;8.68;;;;;;;10.29;99.97;101165.34;5116052;28;20113;-67
2022/05/25 01:07:26;;;;;;;9.18;8.18;;;;;;;10.30;100.00;101174.91;5116428;28;20035;-64
2022/05/25 01:10:04;;;;;;;12.90;8.73;;;;;;;10.25;100.00;101176.69;5115118;28;20095;-65
2022/05/25 01:12:52;;;;;;;13.95;8.68;;;;;;;10.26;100.00;101181.91;5115748;28;20027;-65
2022/05/25 01:15:38;;;;;;;11.20;9.48;;;;;;;10.29;100.00;101184.50;5115743;28;20446;-65
2022/05/25 01:18:33;;;;;;;11.55;8.90;;;;;;;10.26;100.00;101181.91;5115650;28;20138;-64
2022/05/25 01:21:19;;;;;;;10.30;8.85;;;;;;;10.26;100.00;101181.91;5115915;28;20055;-64
2022/05/25 01:23:55;;;;;;;10.38;8.98;;;;;;;10.11;100.00;101166.28;5097256;28;20058;-66
2022/05/25 01:27:00;;;;;;;11.25;9.45;;;;;;;10.18;100.00;101180.22;5115549;28;20032;-64
2022/05/25 01:30:03;;;;;;;11.32;8.93;;;;;;;10.12;100.00;101181.97;5115932;28;20031;-65
2022/05/25 01:32:43;;;;;;;;;;;;;;;10.15;99.56;101185.44;5116002;28;20096;-65
2022/05/25 01:35:32;;;;;;;13.00;8.50;;;;;;;10.10;100.00;101186.34;5115565;28;20393;-65
2022/05/25 01:38:09;;;;;;;11.52;9.60;;;;;;;10.05;100.00;101182.88;5115216;28;20032;-65
2022/05/25 01:40:37;;;;;;;11.93;9.35;;;;;;;10.06;100.00;101186.34;5115575;28;20084;-65
2022/05/25 01:43:23;;;;;;;12.20;9.95;;;;;;;10.08;100.00;101188.09;5115456;28;20135;-63
2022/05/25 01:45:55;;;;;;;13.27;9.73;;;;;;;10.06;100.00;101175.91;5115797;28;20399;-65
2022/05/25 01:48:23;;;;;;;13.85;9.50;;;;;;;10.09;100.00;101197.69;5115319;28;20043;-64
2022/05/25 01:50:59;;;;;;;13.10;9.43;;;;;;;10.03;100.00;101182.03;5115607;28;20089;-65
2022/05/25 01:53:31;;;;;;;11.95;9.98;;;;;;;10.04;100.00;101194.22;5114693;28;20028;-66
2022/05/25 01:56:02;;;;;;;13.55;10.65;;;;;;;10.06;100.00;101200.31;5115251;28;20443;-65
2022/05/25 01:58:28;;;;;;;16.98;10.00;;;;;;;10.03;100.00;101192.50;5115418;28;20465;-66
2022/05/25 02:00:59;;;;;;;14.25;10.38;;;;;;;10.00;100.00;101199.47;5115194;28;20032;-65
2022/05/25 02:06:38;;;;;;;12.80;9.85;;;;;;;9.99;100.00;101190.78;5116058;28;20116;-66
2022/05/25 02:09:18;;;;;;;10.77;9.68;;;;;;;10.01;100.00;101196.00;5115309;28;20434;-64
2022/05/25 02:11:46;;;;;;;12.13;9.85;;;;;;;9.93;100.00;101196.03;5114760;28;20069;-65
2022/05/25 02:14:49;;;;;;;16.67;9.82;;;;;;;9.82;100.00;101183.91;5114978;28;20031;-65
2022/05/25 02:17:55;;;;;;;12.70;9.75;;;;;;;9.92;100.00;101199.50;5115371;28;20023;-65
2022/05/25 02:20:48;;;;;;;12.73;9.98;;;;;;;9.86;100.00;101193.47;5064920;28;20038;-65
2022/05/25 02:23:26;;;;;;;;;;;;;;;9.90;100.00;101203.88;5118238;28;20138;-64
2022/05/25 02:26:00;;;;;;;12.07;10.13;;;;;;;9.81;100.00;101198.72;5119104;28;19961;-65
2022/05/25 02:28:32;;;;;;;11.63;9.77;;;;;;;9.82;100.00;101199.56;5119109;28;20414;-65
2022/05/25 02:30:59;;;;;;;16.40;10.77;;;;;;;9.78;100.00;101206.56;5118842;28;20355;-65
2022/05/25 02:33:31;;;;;;;13.23;9.88;;;;;;;9.78;100.00;101209.16;5119180;28;20039;-65
2022/05/25 02:35:58;;;;;;;13.60;10.77;;;;;;;9.73;100.00;101201.34;5118736;28;20028;-64
2022/05/25 02:38:24;;;;;;;12.70;10.07;;;;;;;9.78;100.00;101209.16;5118556;28;20122;-65
2022/05/25 02:40:50;;;;;;;13.48;9.38;;;;;;;9.74;100.00;101208.31;5118815;28;20027;-65
2022/05/25 02:43:15;;;;;;;13.02;9.32;;;;;;;9.75;100.00;101201.34;5118568;28;20442;-65
2022/05/25 02:45:42;;;;;;;13.20;9.68;;;;;;;9.73;100.00;101214.41;5100228;28;20038;-64
2022/05/25 02:48:07;;;;;;;14.10;9.20;;;;;;;9.78;100.00;101219.63;5118631;28;20027;-65
2022/05/25 02:50:33;;;;;;;12.80;9.80;;;;;;;9.72;100.00;101220.50;5118396;28;20100;-65
2022/05/25 02:52:58;;;;;;;12.70;8.95;;;;;;;9.66;100.00;101217.06;5118489;28;20032;-65
2022/05/25 02:55:24;;;;;;;13.00;9.43;;;;;;;9.64;100.00;101216.19;5115258;28;20036;-66
2022/05/25 02:57:49;;;;;;;13.73;9.65;;;;;;;9.62;100.00;101215.34;5118373;28;20031;-65
2022/05/25 03:00:15;;;;;;;12.38;8.55;;;;;;;9.60;100.00;101224.91;5117951;28;20035;-65
2022/05/25 03:02:41;;;;;;;17.20;8.80;;;;;;;9.60;100.00;101223.19;5117752;28;20455;-65
2022/05/25 03:05:09;;;;;;;12.30;8.55;;;;;;;9.58;100.00;101221.44;5118123;28;20070;-64
2022/05/25 03:07:35;;;;;;;14.60;8.60;;;;;;;9.58;100.00;101221.44;5118233;28;20028;-66
2022/05/25 03:10:01;;;;;;;11.15;8.35;;;;;;;9.56;100.00;101226.66;5117995;28;20031;-65
2022/05/25 03:12:26;;;;;;;10.40;8.50;;;;;;;9.58;100.00;101232.75;5118672;28;20034;-66
2022/05/25 03:14:51;;;;;;;12.68;8.68;;;;;;;9.57;100.00;101235.38;5117886;28;20028;-65
2022/05/25 03:17:16;;;;;;;12.68;8.73;;;;;;;9.50;100.00;101231.94;5117696;28;20101;-65
2022/05/25 03:19:49;;;;;;;12.20;8.50;;;;;;;9.54;100.00;101244.09;5118672;28;20035;-66
2022/05/25 03:22:14;;;;;;;;;;;;;;;9.60;100.00;101237.97;5118058;28;20378;-66
2022/05/25 03:24:39;;;;;;;12.67;8.30;;;;;;;9.49;100.00;101234.53;5118066;28;19923;-66
2022/05/25 03:27:04;;;;;;;11.40;8.35;;;;;;;9.46;100.00;101230.19;5114626;28;20055;-64
2022/05/25 03:29:30;;;;;;;10.15;8.10;;;;;;;9.52;100.00;101238.03;5118032;28;20046;-65
2022/05/25 03:31:56;;;;;;;13.50;8.32;;;;;;;9.49;100.00;101238.03;5117750;28;20054;-65
2022/05/25 03:34:22;;;;;;;11.32;8.43;;;;;;;9.42;100.00;101231.94;5117228;28;20430;-65
2022/05/25 03:36:48;;;;;;;13.07;8.60;;;;;;;9.44;100.00;101229.31;5117777;28;20027;-64
2022/05/25 03:39:13;;;;;;;12.15;8.60;;;;;;;9.49;100.00;101248.47;5117578;28;20027;-64
2022/05/25 03:41:38;;;;;;;9.75;7.85;;;;;;;9.45;100.00;101251.97;5117614;28;20027;-67
2022/05/25 03:44:04;;;;;;;14.02;8.75;;;;;;;9.46;100.00;101251.09;5117150;28;20045;-64
2022/05/25 03:46:29;;;;;;;9.43;7.95;;;;;;;9.45;100.00;101251.09;5117336;28;20062;-65
2022/05/25 03:48:54;;;;;;;13.05;8.27;;;;;;;9.45;100.00;101261.53;5117232;28;20027;-65
2022/05/25 03:51:20;;;;;;;12.93;7.93;;;;;;;9.42;100.00;101265.88;5117340;28;20042;-65
2022/05/25 03:53:46;;;;;;;11.82;8.00;;;;;;;9.40;100.00;101265.03;5117283;28;20034;-66
2022/05/25 03:56:11;;;;;;;11.35;7.97;;;;;;;9.41;100.00;101271.13;5114099;28;20035;-65
2022/05/25 03:58:36;;;;;;;11.52;7.72;;;;;;;9.37;100.00;101264.16;5117159;28;20058;-65
2022/05/25 04:01:02;;;;;;;10.90;7.65;;;;;;;9.35;100.00;101269.38;5117175;28;20070;-64
2022/05/25 04:03:27;;;;;;;9.13;7.90;;;;;;;9.37;100.00;101265.03;5116847;28;20342;-66
2022/05/25 04:05:53;;;;;;;12.40;7.90;;;;;;;9.42;100.00;101271.13;5117077;28;20110;-66
2022/05/25 04:08:18;;;;;;;12.70;8.00;;;;;;;9.37;100.00;101275.47;5098885;28;20046;-65
2022/05/25 04:10:44;;;;;;;11.00;7.18;;;;;;;9.46;100.00;101276.34;5117047;28;20036;-65
2022/05/25 04:13:09;;;;;;;11.70;7.38;;;;;;;9.49;100.00;101284.19;5116772;28;20039;-66
2022/05/25 04:15:35;;;;;;;10.18;7.10;;;;;;;9.49;100.00;101271.13;5116840;28;20354;-65
2022/05/25 04:18:02;;;;;;;9.95;7.07;;;;;;;9.49;100.00;101284.19;5116858;28;20027;-65
2022/05/25 04:20:29;;;;;;;9.00;6.97;;;;;;;9.53;100.00;101276.31;5116642;28;20036;-64
2022/05/25 04:22:55;;;;;;;8.52;7.03;;;;;;;9.53;100.00;101291.09;5116810;28;20443;-65
2022/05/25 04:25:22;;;;;;;9.80;6.78;;;;;;;9.54;100.00;101277.19;5116643;28;20046;-64
2022/05/25 04:27:50;;;;;;;8.82;6.68;;;;;;;9.56;100.00;101276.31;5112802;28;20104;-64
2022/05/25 04:30:20;;;;;;;8.93;6.70;;;;;;;9.58;100.00;101284.13;5116376;28;20046;-64
2022/05/25 04:32:45;;;;;;;9.77;6.72;;;;;;;9.58;100.00;101285.00;5116457;28;20092;-65
2022/05/25 04:35:12;;;;;;;9.93;6.68;;;;;;;9.64;100.00;101289.38;5116662;28;20431;-65
2022/05/25 04:37:52;;;;;;;10.30;6.80;;;;;;;9.59;100.00;101280.66;5116321;28;20032;-65
2022/05/25 04:40:33;;;;;;;12.65;6.65;;;;;;;9.70;100.00;101284.09;5116151;28;20028;-64
2022/05/25 04:43:06;;;;;;;9.00;6.87;;;;;;;9.73;100.00;101286.72;5116123;28;20040;-65
2022/05/25 04:45:32;;;;;;;13.07;6.22;;;;;;;9.72;100.00;101285.84;5115758;28;20257;-65
2022/05/25 04:47:59;;;;;;;10.70;6.28;;;;;;;9.73;100.00;101294.56;5116532;28;20062;-65
2022/05/25 04:50:27;;;;;;;13.13;6.78;;;;;;;9.75;100.00;101298.03;5116304;28;20066;-65
2022/05/25 04:52:53;;;;;;;11.43;6.53;;;;;;;9.78;100.00;101287.56;5116109;28;20063;-65
2022/05/25 04:58:04;;;;;;;12.27;5.93;;;;;;;9.83;100.00;101293.66;5116254;28;20470;-64
2022/05/25 05:00:29;;;;;;;9.38;6.15;;;;;;;9.91;100.00;101294.50;5112885;28;20119;-65
2022/05/25 05:02:55;;;;;;;10.00;6.88;;;;;;;9.88;100.00;101294.50;5116042;28;20031;-65
2022/05/25 05:05:21;;;;;;;8.60;6.05;;;;;;;9.91;100.00;101304.94;5115679;28;20124;-64
2022/05/25 05:07:46;;;;;;;11.02;6.13;;;;;;;9.94;100.00;101299.72;5116155;28;20035;-65
2022/05/25 05:10:13;;;;;;;11.38;5.70;;;;;;;10.01;100.00;101304.06;5116186;28;20023;-65
2022/05/25 05:12:42;;;;;;;10.73;6.03;;;;;;;10.05;100.00;101308.38;5115636;28;20181;-64
2022/05/25 05:15:07;;;;;;;12.05;6.35;;;;;;;10.09;100.00;101301.41;5115683;28;20024;-66
2022/05/25 05:17:33;;;;;;;10.15;6.22;;;;;;;10.09;100.00;101302.28;5115430;28;20033;-64
2022/05/25 05:19:58;;;;;;;11.48;5.90;;;;;;;10.15;100.00;101305.75;5115548;28;20038;-64
2022/05/25 05:22:23;;;;;;;13.95;6.13;;;;;;;10.19;100.00;101303.16;5115643;28;20339;-64
2022/05/25 05:24:49;;;;;;;10.20;5.93;;;;;;;10.24;100.00;101297.88;5115439;28;20032;-66
2022/05/25 05:27:14;;;;;;;16.70;6.05;;;;;;;10.29;100.00;101290.88;5115578;28;20076;-65
2022/05/25 05:29:39;;;;;;;11.98;6.18;;;;;;;10.35;99.80;101288.25;5115444;28;20031;-65
2022/05/25 05:32:05;;;;;;;13.10;6.45;;;;;;;10.36;100.00;101293.47;5115663;28;20038;-65
2022/05/25 05:34:30;;;;;;;11.77;6.65;;;;;;;10.39;99.86;101290.81;5115412;28;20028;-65
2022/05/25 05:37:24;;;;;;;10.23;5.78;;;;;;;10.59;99.90;101293.31;5115352;28;20028;-64
2022/05/25 05:39:54;;;;;;;14.82;6.40;;;;;;;10.55;99.63;101291.63;5111655;28;20035;-65
2022/05/25 05:42:22;;;;;;;10.05;6.10;;;;;;;10.60;99.37;101288.97;5115412;28;20077;-64
2022/05/25 05:45:03;;;;;;;10.13;6.30;;;;;;;10.59;99.50;101280.22;5115443;28;20023;-65
2022/05/25 05:47:35;;;;;;;13.07;6.10;;;;;;;10.62;99.89;101279.34;5115215;28;20048;-64
2022/05/25 05:50:03;;;;;;;12.82;6.70;;;;;;;10.66;99.73;101286.31;5115417;28;20024;-65
2022/05/25 05:52:28;;;;;;;9.77;6.10;;;;;;;10.79;99.15;101293.19;5097434;28;20134;-64
2022/05/25 05:54:54;;;;;;;11.50;6.25;;;;;;;10.80;99.54;101285.31;5115401;28;20411;-65
2022/05/25 05:57:19;;;;;;;13.55;6.55;;;;;;;10.82;99.02;101278.34;5118679;28;20454;-65
2022/05/25 05:59:44;;;;;;;12.65;6.38;;;;;;;10.73;98.96;101257.47;5119579;28;20027;-65
2022/05/25 06:02:10;;;;;;;11.10;6.15;;;;;;;10.96;98.97;101293.94;5118999;28;20106;-65
2022/05/25 06:04:35;;;;;;;11.55;6.68;;;;;;;11.07;98.26;101297.34;5119215;28;20027;-65
2022/05/25 06:07:00;;;;;;;10.95;6.57;;;;;;;11.39;97.02;101286.59;5101419;28;20115;-66
2022/05/25 06:09:26;;;;;;;11.73;7.00;;;;;;;11.48;96.75;101277.75;5119155;28;20036;-64
2022/05/25 06:11:51;;;;;;;12.93;6.25;;;;;;;11.47;96.66;101281.25;5119421;28;20032;-65
2022/05/25 06:14:16;;;;;;;13.65;6.47;;;;;;;11.71;96.31;101290.63;5119143;28;20332;-64
2022/05/25 06:19:26;;;;;;;8.45;5.22;;;;;;;12.23;91.36;101300.53;5119051;28;20365;-64
2022/05/25 06:22:03;;;;;;;9.85;6.10;;;;;;;12.21;90.72;101305.78;5118797;28;20031;-65
2022/05/25 06:24:31;;;;;;;9.73;6.03;;;;;;;12.13;91.06;101312.88;5115925;28;20100;-65
2022/05/25 06:26:56;;;;;;;10.38;6.38;;;;;;;12.19;91.92;101320.69;5118616;28;20046;-65
2022/05/25 06:29:22;;;;;;;11.07;6.00;;;;;;;12.35;92.50;101318.72;5118918;28;20115;-65
2022/05/25 06:31:48;;;;;;;12.25;6.80;;;;;;;12.38;91.47;101321.31;5118590;28;20031;-65
2022/05/25 06:34:14;;;;;;;13.20;7.15;;;;;;;12.35;91.85;101305.59;5118801;28;20034;-65
2022/05/25 06:36:40;;;;;;;10.48;6.68;;;;;;;12.54;91.08;101322.84;5118603;28;20036;-66
2022/05/25 06:39:05;;;;;;;12.38;6.85;;;;;;;12.57;89.91;101320.19;5118919;28;20027;-65
2022/05/25 06:41:30;;;;;;;14.27;7.57;;;;;;;12.72;89.14;101333.09;5118452;28;20063;-66
2022/05/25 06:43:56;;;;;;;13.68;8.40;;;;;;;12.80;88.92;101330.38;5118765;28;20340;-65
2022/05/25 06:46:22;;;;;;;15.77;8.77;;;;;;;12.96;89.51;101334.50;5118571;28;20027;-65
2022/05/25 06:48:49;;;;;;;12.93;8.23;;;;;;;13.08;88.09;101330.81;5118440;28;20107;-65
2022/05/25 06:51:18;;;;;;;17.02;9.55;;;;;;;13.15;88.70;101345.63;5118509;28;20027;-65
2022/05/25 06:53:43;;;;;;;17.25;10.07;;;;;;;13.29;87.75;101330.50;5118422;28;20024;-66
2022/05/25 06:56:08;;;;;;;17.50;10.80;;;;;;;13.25;87.34;101328.81;5118122;28;20035;-65
2022/05/25 06:58:34;;;;;;;17.38;9.77;;;;;;;13.31;87.47;101341.84;5118221;28;20394;-66
2022/05/25 07:01:00;;;;;;;17.88;9.43;;;;;;;13.32;86.81;101338.34;5118476;28;20028;-65
2022/05/25 07:03:26;;;;;;;18.00;10.20;;;;;;;13.27;87.19;101327.03;5118269;28;20027;-65
2022/05/25 07:05:52;;;;;;;16.85;10.75;;;;;;;13.36;87.31;101352.28;5100098;28;20054;-65
2022/05/25 07:08:17;;;;;;;16.33;9.05;;;;;;;13.39;85.45;101363.59;5117236;28;20110;-64
2022/05/25 07:10:45;;;;;;;15.68;9.82;;;;;;;13.27;86.63;101355.94;5118221;28;20035;-65
2022/05/25 07:13:17;;;;;;;14.15;10.30;;;;;;;13.21;87.14;101351.63;5118376;28;20027;-64
2022/05/25 07:15:43;;;;;;;17.55;9.95;;;;;;;13.46;85.51;101356.50;5118028;28;20038;-65
2022/05/25 07:18:09;;;;;;;15.80;10.10;;;;;;;13.39;85.38;101360.97;5117816;28;20343;-65
2022/05/25 07:20:35;;;;;;;14.18;10.00;;;;;;;13.24;85.92;101351.59;5117924;28;20080;-65
2022/05/25 07:23:00;;;;;;;19.45;11.02;;;;;;;13.17;86.38;101365.69;5117570;28;20384;-65
2022/05/25 07:25:26;;;;;;;18.38;11.40;;;;;;;13.28;86.17;101369.94;5117755;28;20062;-65
2022/05/25 07:27:51;;;;;;;16.73;10.75;;;;;;;13.27;85.81;101373.47;5117857;28;20035;-64
2022/05/25 07:30:17;;;;;;;13.70;10.48;;;;;;;13.22;85.95;101376.16;5117637;28;20137;-66
2022/05/25 07:32:44;;;;;;;17.73;11.88;;;;;;;13.16;87.89;101369.22;5117930;28;20031;-66
2022/05/25 07:35:12;;;;;;;14.70;10.55;;;;;;;13.26;86.54;101375.22;5117720;28;20039;-65
2022/05/25 07:37:40;;;;;;;16.13;10.65;;;;;;;13.30;87.08;101366.41;5117417;28;20043;-66
2022/05/25 07:40:31;;;;;;;14.02;10.98;;;;;;;13.46;87.19;101374.91;5117354;28;20136;-64
2022/05/25 07:43:00;;;;;;;12.23;10.60;;;;;;;13.52;86.34;101378.28;5117814;28;20316;-65
2022/05/25 07:45:26;;;;;;;17.40;11.05;;;;;;;13.53;87.19;101382.63;5117679;28;20035;-63
2022/05/25 07:47:53;;;;;;;14.73;9.70;;;;;;;13.55;85.57;101374.72;5117461;28;20403;-66
2022/05/25 07:50:19;;;;;;;14.93;10.20;;;;;;;13.65;86.93;101376.31;5117198;28;20031;-65
2022/05/25 07:52:45;;;;;;;18.23;10.55;;;;;;;13.74;84.00;101378.78;5117519;28;20346;-65
2022/05/25 07:55:11;;;;;;;14.75;10.00;;;;;;;13.69;85.11;101382.38;5117198;28;20024;-66
2022/05/25 07:57:37;;;;;;;14.10;9.13;;;;;;;13.73;85.14;101374.41;5117021;28;20415;-65
2022/05/25 08:00:05;;;;;;;14.18;9.05;;;;;;;13.87;84.44;101379.41;5117179;28;20092;-64
2022/05/25 08:08:09;;;;;;;12.23;6.78;;;;;;;14.26;82.02;101383.06;5117361;28;20445;-65
2022/05/25 08:10:35;;;;;;;12.25;6.70;;;;;;;14.43;81.38;101388.88;5117121;28;20034;-65
2022/05/25 08:13:02;;;;;;;8.95;6.70;;;;;;;14.42;80.91;101376.59;5116566;28;20039;-64
2022/05/25 08:15:28;;;;;;;8.70;6.15;;;;;;;14.46;81.97;101385.31;5116681;28;20118;-66
2022/05/25 08:17:54;;;;;;;11.52;6.13;;;;;;;14.59;80.03;101381.53;5116607;28;20036;-65
2022/05/25 08:20:21;;;;;;;10.82;6.20;;;;;;;14.63;79.39;101383.19;5116656;28;20032;-66
2022/05/25 08:22:47;;;;;;;12.85;6.20;;;;;;;14.61;80.20;101380.59;5116339;28;20126;-65
2022/05/25 08:25:13;;;;;;;9.10;5.53;;;;;;;14.63;79.27;101385.84;5116675;28;20118;-65
2022/05/25 08:27:39;;;;;;;11.55;5.93;;;;;;;14.55;79.84;101385.13;5116458;28;20039;-65
2022/05/25 08:30:07;;;;;;;11.02;5.68;;;;;;;14.56;79.86;101371.91;5112846;28;20046;-65
2022/05/25 08:32:32;;;;;;;9.88;5.72;;;;;;;14.68;79.77;101378.72;5116118;28;20422;-66
2022/05/25 08:34:57;;;;;;;9.20;4.93;;;;;;;14.60;78.46;101373.59;5116579;28;20035;-65
2022/05/25 08:37:22;;;;;;;9.60;5.38;;;;;;;14.56;79.86;101366.66;5116425;28;20035;-64
2022/05/25 08:39:48;;;;;;;12.05;5.22;;;;;;;14.63;79.08;101367.41;5116446;28;20039;-66
2022/05/25 08:42:18;;;;;;;8.93;5.10;;;;;;;14.69;78.20;101362.00;5116071;28;20035;-65
2022/05/25 08:44:48;;;;;;;10.05;4.93;;;;;;;14.81;78.74;101366.13;5116064;28;20159;-65
2022/05/25 08:47:13;;;;;;;8.00;4.57;;;;;;;14.91;78.46;101368.50;5115677;28;20042;-66
2022/05/25 08:49:43;;;;;;;9.52;5.10;;;;;;;15.05;78.17;101368.22;5116127;28;20027;-64
2022/05/25 08:52:29;;;;;;;8.38;4.40;;;;;;;15.18;78.78;101366.13;5116068;28;20036;-65
2022/05/25 08:54:57;;;;;;;9.15;4.35;;;;;;;15.31;75.29;101371.06;5115362;28;20395;-66
2022/05/25 08:57:30;;;;;;;5.40;3.75;;;;;;;15.62;73.55;101368.56;5116124;28;20031;-65
2022/05/25 09:00:03;;;;;;;6.22;3.78;;;;;;;15.70;71.73;101368.38;5115796;28;20104;-65
2022/05/25 09:02:53;;;;;;;8.40;3.85;;;;;;;15.95;71.26;101364.16;5113142;28;20098;-65
2022/05/25 09:05:37;;;;;;;6.85;3.20;;;;;;;16.64;69.37;101370.13;5115589;28;20044;-66
2022/05/25 09:08:26;;;;;;;9.18;3.85;;;;;;;16.82;68.54;101361.66;5115916;28;20043;-66
2022/05/25 09:10:59;;;;;;;6.65;3.25;;;;;;;18.18;63.34;101350.00;5115878;28;20032;-64
2022/05/25 09:13:32;;;;;;;4.25;2.58;;;;;;;19.11;58.62;101359.66;5115921;28;20027;-67
2022/05/25 09:16:16;;;;;;;6.57;2.78;;;;;;;19.91;54.53;101368.72;5115847;28;20035;-65
2022/05/25 09:19:17;;;;;;;5.18;2.80;;;;;;;20.93;55.06;101368.50;5115802;28;20028;-66
2022/05/25 09:22:06;;;;;;;4.10;2.40;;;;;;;20.93;53.68;101374.66;5108563;28;20031;-65
2022/05/25 09:24:32;;;;;;;5.63;2.10;;;;;;;20.14;50.85;101368.53;5115302;28;20423;-66
2022/05/25 09:26:59;;;;;;;3.10;1.83;;;;;;;18.99;53.67;101381.41;5115721;28;20034;-65
2022/05/25 09:29:25;;;;;;;3.55;1.70;;;;;;;18.67;53.03;101374.69;5115502;28;20046;-66
2022/05/25 09:31:55;;;;;;;2.83;1.70;;;;;;;18.59;53.89;101382.06;5115482;28;20031;-66
2022/05/25 09:34:50;;;;;;;3.80;1.20;;;;;;;18.67;55.49;101375.56;5115355;28;20122;-66
2022/05/25 09:37:23;;;;;;;2.03;1.58;;;;;;;18.24;55.56;101370.97;5115263;28;20027;-65
2022/05/25 09:39:51;;;;;;;2.75;1.50;;;;;;;18.56;59.33;101376.84;5115695;28;20060;-65
2022/05/25 09:42:19;;;;;;;2.90;1.70;;;;;;;18.75;57.34;101369.94;5115457;28;20038;-66
2022/05/25 09:44:49;;;;;;;3.00;1.30;;;;;;;18.46;56.01;101365.75;5115040;28;20114;-63
2022/05/25 09:47:27;;;;;;;3.15;1.10;;;;;;;18.04;53.57;101394.66;5115298;28;20407;-64
2022/05/25 09:49:57;;;;;;;2.95;1.20;;;;;;;17.47;54.55;101389.56;5115186;28;20038;-64
2022/05/25 09:52:32;;;;;;;4.03;1.30;;;;;;;17.37;57.36;101392.50;5115377;28;20027;-63
2022/05/25 09:55:03;;;;;;;3.55;1.10;;;;;;;17.26;55.48;101389.34;5115327;28;20427;-64
2022/05/25 09:57:34;;;;;;;3.97;1.13;;;;;;;17.29;54.45;101399.84;5115055;28;20036;-64
2022/05/25 10:00:21;;;;;;;1.92;1.15;;;;;;;17.37;55.65;101403.06;5115746;28;20043;-63
2022/05/25 10:02:46;;;;;;;3.08;1.00;;;;;;;17.59;53.16;101376.78;5115021;28;20118;-64
2022/05/25 10:05:15;;;;;;;2.60;0.90;;;;;;;17.99;53.19;101397.50;5115307;28;20114;-63
2022/05/25 10:08:09;;;;;;;5.30;0.98;;;;;;;18.32;51.61;101392.75;5114282;28;20084;-64
2022/05/25 10:10:50;;;;;;;3.35;1.00;;;;;;;18.51;51.78;101394.72;5115450;28;20027;-64
2022/05/25 10:13:25;;;;;;;4.50;1.20;;;;;;;18.87;50.61;101381.88;5115213;28;20047;-65
2022/05/25 10:15:51;;;;;;;5.45;1.27;;;;;;;18.83;49.13;101391.75;5115228;28;20111;-65
2022/05/25 10:18:32;;;;;;;2.75;1.15;;;;;;;18.89;50.69;101394.13;5114789;28;20039;-65
2022/05/25 10:20:57;;;;;;;4.47;1.10;;;;;;;19.02;49.39;101402.50;5114735;28;20103;-66
2022/05/25 10:23:25;;;;;;;3.05;0.90;;;;;;;19.05;49.38;101397.03;5115012;28;20109;-64
2022/05/25 10:25:57;;;;;;;6.57;1.00;;;;;;;19.00;49.10;101389.28;5114917;28;20077;-65
2022/05/25 10:28:31;;;;;;;;;;;;;;;19.18;52.37;101394.78;5115762;28;20104;-64
2022/05/25 10:37:08;;;;;;;3.50;0.90;;;;;;;18.70;48.76;101382.53;5114842;28;20504;-64
2022/05/25 10:39:36;;;;;;;2.20;0.90;;;;;;;18.55;48.72;101378.63;5115026;28;20023;-64
2022/05/25 10:42:04;;;;;;;2.88;0.70;;;;;;;18.58;50.52;101381.16;5115131;28;20024;-63
2022/05/25 10:45:09;;;;;;;3.35;0.85;;;;;;;18.62;49.88;101384.59;5117730;28;20027;-64
2022/05/25 10:47:49;;;;;;;3.58;1.00;;;;;;;18.46;49.72;101386.06;5118470;28;20334;-64
2022/05/25 10:50:32;;;;;;;2.97;1.05;;;;;;;18.19;50.82;101377.34;5118670;28;20035;-64
2022/05/25 10:53:29;;;;;;;3.00;0.93;;;;;;;18.11;49.08;101388.22;5118575;28;20027;-63
2022/05/25 10:56:07;;;;;;;2.95;0.90;;;;;;;18.38;50.43;101381.91;5118120;28;20035;-64
2022/05/25 10:58:47;;;;;;;2.08;0.98;;;;;;;18.58;48.90;101373.22;5118453;28;20023;-64
2022/05/25 11:01:23;;;;;;;3.45;0.73;;;;;;;18.40;48.92;101376.56;5117960;28;20392;-65
2022/05/25 11:03:58;;;;;;;1.98;0.80;;;;;;;18.09;46.68;101384.78;5118276;28;20028;-66
2022/05/25 11:06:26;;;;;;;2.95;0.80;;;;;;;17.95;47.51;101387.03;5099834;28;20392;-65
2022/05/25 11:09:09;;;;;;;3.85;0.85;;;;;;;17.95;49.36;101393.22;5118103;28;20036;-64
2022/05/25 11:11:51;;;;;;;3.47;1.10;;;;;;;18.00;50.84;101393.91;5118506;28;20035;-65
2022/05/25 11:14:23;;;;;;;3.47;1.07;;;;;;;17.83;51.04;101388.34;5118381;28;20035;-65
2022/05/25 11:17:01;;;;;;;3.67;1.00;;;;;;;18.12;52.21;101397.91;5117754;28;20288;-64
2022/05/25 11:19:44;;;;;;;4.00;0.90;;;;;;;18.15;50.57;101391.63;5118062;28;20031;-65
2022/05/25 11:22:43;;;;;;;3.83;1.00;;;;;;;18.37;50.59;101376.66;5118005;28;20036;-66
2022/05/25 11:25:31;;;;;;;3.28;0.93;;;;;;;18.77;46.65;101366.31;5083170;28;20047;-64
2022/05/25 11:28:26;;;;;;;4.15;0.90;;;;;;;18.84;47.02;101368.75;5067865;28;20040;-64
2022/05/25 11:30:58;;;;;;;4.68;0.90;;;;;;;18.89;48.32;101364.97;5117822;28;20371;-64
2022/05/25 11:33:39;;;;;;;2.65;0.80;;;;;;;19.10;48.44;101369.41;5117705;28;20046;-64
2022/05/25 11:36:28;;;;;;;5.50;1.33;;;;;;;19.24;49.34;101362.69;5117220;28;20032;-64
2022/05/25 11:39:22;;;;;;;3.65;1.10;;;;;;;19.25;47.84;101367.94;5117593;28;20032;-65
2022/05/25 11:42:03;;;;;;;3.33;1.00;;;;;;;19.33;48.97;101352.56;5117303;28;20031;-64
2022/05/25 11:44:44;;;;;;;3.15;0.90;;;;;;;19.62;47.26;101363.78;5117378;28;20207;-64
2022/05/25 11:47:35;;;;;;;5.53;1.53;;;;;;;19.72;46.80;101343.88;5117375;28;20351;-64
2022/05/25 11:50:26;;;;;;;3.57;1.10;;;;;;;19.52;47.53;101338.56;5117290;28;20091;-65
2022/05/25 11:53:16;;;;;;;1.58;0.80;;;;;;;19.33;47.08;101355.22;5117312;28;20088;-64
2022/05/25 11:56:06;;;;;;;2.45;1.05;;;;;;;19.28;46.35;101358.97;5117018;28;20485;-64
2022/05/25 11:58:55;;;;;;;3.72;1.02;;;;;;;19.39;47.86;101354.13;5117264;28;20028;-64